sensor_id;sensor_type;location;lat;lon;timestamp;pressure;altitude;pressure_sealevel;temperature;humidity
25947;BME280;13745;51.470;9.894;2023-01-10T00:02:03;98673.97;;;7.44;81.98
25947;BME280;13745;51.470;9.894;2023-01-10T00:04:48;98674.84;;;7.45;82.33
25947;BME280;13745;51.470;9.894;2023-01-10T00:07:33;98677.38;;;7.48;81.89
25947;BME280;13745;51.470;9.894;2023-01-10T00:10:19;98683.38;;;7.50;81.90
25947;BME280;13745;51.470;9.894;2023-01-10T00:13:04;98679.09;;;7.47;82.14
25947;BME280;13745;51.470;9.894;2023-01-10T00:16:08;98693.78;;;7.41;81.73
25947;BME280;13745;51.470;9.894;2023-01-10T00:18:53;98692.91;;;7.42;82.37
25947;BME280;13745;51.470;9.894;2023-01-10T00:21:38;98703.22;;;7.42;81.85
25947;BME280;13745;51.470;9.894;2023-01-10T00:24:23;98713.50;;;7.46;81.58
25947;BME280;13745;51.470;9.894;2023-01-10T00:27:08;98710.88;;;7.49;82.24
25947;BME280;13745;51.470;9.894;2023-01-10T00:29:57;98716.03;;;7.49;82.41
25947;BME280;13745;51.470;9.894;2023-01-10T00:32:45;98719.47;;;7.50;82.38
25947;BME280;13745;51.470;9.894;2023-01-10T00:35:30;98715.13;;;7.52;82.42
25947;BME280;13745;51.470;9.894;2023-01-10T00:38:15;98722.00;;;7.53;81.99
25947;BME280;13745;51.470;9.894;2023-01-10T00:41:00;98725.47;;;7.53;82.30
25947;BME280;13745;51.470;9.894;2023-01-10T00:43:45;98738.34;;;7.52;82.19
25947;BME280;13745;51.470;9.894;2023-01-10T00:46:42;98734.88;;;7.53;82.34
25947;BME280;13745;51.470;9.894;2023-01-10T00:49:28;98740.91;;;7.52;81.68
25947;BME280;13745;51.470;9.894;2023-01-10T00:52:13;98742.63;;;7.53;82.06
25947;BME280;13745;51.470;9.894;2023-01-10T00:54:58;98752.94;;;7.56;82.04
25947;BME280;13745;51.470;9.894;2023-01-10T00:57:43;98756.34;;;7.58;82.13
25947;BME280;13745;51.470;9.894;2023-01-10T01:00:29;98747.75;;;7.57;81.98
25947;BME280;13745;51.470;9.894;2023-01-10T01:03:14;98760.63;;;7.57;81.44
25947;BME280;13745;51.470;9.894;2023-01-10T01:06:04;98773.59;;;7.51;81.80
25947;BME280;13745;51.470;9.894;2023-01-10T01:08:49;98779.59;;;7.52;81.94
25947;BME280;13745;51.470;9.894;2023-01-10T01:11:34;98785.63;;;7.54;81.78
25947;BME280;13745;51.470;9.894;2023-01-10T01:14:19;98795.88;;;7.57;81.53
25947;BME280;13745;51.470;9.894;2023-01-10T01:17:04;98815.69;;;7.55;81.59
25947;BME280;13745;51.470;9.894;2023-01-10T01:19:49;98817.41;;;7.54;81.85
25947;BME280;13745;51.470;9.894;2023-01-10T01:22:36;98823.44;;;7.53;81.99
25947;BME280;13745;51.470;9.894;2023-01-10T01:25:21;98840.59;;;7.57;81.65
25947;BME280;13745;51.470;9.894;2023-01-10T01:28:06;98846.59;;;7.58;81.95
25947;BME280;13745;51.470;9.894;2023-01-10T01:30:52;98841.50;;;7.53;81.88
25947;BME280;13745;51.470;9.894;2023-01-10T01:33:37;98846.66;;;7.52;81.98
25947;BME280;13745;51.470;9.894;2023-01-10T01:36:22;98846.66;;;7.50;82.49
25947;BME280;13745;51.470;9.894;2023-01-10T01:39:08;98850.16;;;7.46;82.36
25947;BME280;13745;51.470;9.894;2023-01-10T01:41:53;98861.31;;;7.47;82.10
25947;BME280;13745;51.470;9.894;2023-01-10T01:44:42;98869.06;;;7.47;82.62
25947;BME280;13745;51.470;9.894;2023-01-10T01:47:26;98876.78;;;7.47;82.19
25947;BME280;13745;51.470;9.894;2023-01-10T01:50:14;98879.41;;;7.45;82.40
25947;BME280;13745;51.470;9.894;2023-01-10T01:53:04;98881.97;;;7.44;82.35
25947;BME280;13745;51.470;9.894;2023-01-10T01:55:58;98888.88;;;7.42;82.58
25947;BME280;13745;51.470;9.894;2023-01-10T01:58:47;98888.84;;;7.43;82.42
25947;BME280;13745;51.470;9.894;2023-01-10T02:01:34;98899.16;;;7.43;82.44
25947;BME280;13745;51.470;9.894;2023-01-10T02:04:25;98908.63;;;7.41;82.69
25947;BME280;13745;51.470;9.894;2023-01-10T02:07:11;98903.50;;;7.40;82.54
25947;BME280;13745;51.470;9.894;2023-01-10T02:10:00;98906.94;;;7.40;82.74
25947;BME280;13745;51.470;9.894;2023-01-10T02:12:50;98910.38;;;7.39;82.96
25947;BME280;13745;51.470;9.894;2023-01-10T02:15:36;98919.78;;;7.43;82.31
25947;BME280;13745;51.470;9.894;2023-01-10T02:18:22;98924.09;;;7.46;82.86
25947;BME280;13745;51.470;9.894;2023-01-10T02:21:19;98928.38;;;7.44;82.94
25947;BME280;13745;51.470;9.894;2023-01-10T02:27:25;98940.34;;;7.54;82.69
25947;BME280;13745;51.470;9.894;2023-01-10T02:30:32;98936.91;;;7.52;82.32
25947;BME280;13745;51.470;9.894;2023-01-10T02:33:26;98945.50;;;7.52;82.91
25947;BME280;13745;51.470;9.894;2023-01-10T02:36:28;98952.41;;;7.49;82.80
25947;BME280;13745;51.470;9.894;2023-01-10T02:39:21;98954.16;;;7.47;83.05
25947;BME280;13745;51.470;9.894;2023-01-10T02:42:09;98959.28;;;7.50;83.08
25947;BME280;13745;51.470;9.894;2023-01-10T02:44:59;98964.44;;;7.48;83.34
25947;BME280;13745;51.470;9.894;2023-01-10T02:47:47;98973.00;;;7.52;83.37
25947;BME280;13745;51.470;9.894;2023-01-10T02:50:45;98977.31;;;7.50;83.06
25947;BME280;13745;51.470;9.894;2023-01-10T02:53:36;98985.91;;;7.53;82.83
25947;BME280;13745;51.470;9.894;2023-01-10T02:56:47;98996.25;;;7.49;83.28
25947;BME280;13745;51.470;9.894;2023-01-10T02:59:53;99005.78;;;7.36;82.67
25947;BME280;13745;51.470;9.894;2023-01-10T03:02:52;98991.13;;;7.41;83.21
25947;BME280;13745;51.470;9.894;2023-01-10T03:05:51;98999.72;;;7.43;83.05
25947;BME280;13745;51.470;9.894;2023-01-10T03:08:43;99007.44;;;7.46;82.85
25947;BME280;13745;51.470;9.894;2023-01-10T03:11:31;99011.72;;;7.49;83.14
25947;BME280;13745;51.470;9.894;2023-01-10T03:14:27;99001.41;;;7.49;82.80
25947;BME280;13745;51.470;9.894;2023-01-10T03:17:14;98999.66;;;7.51;83.37
25947;BME280;13745;51.470;9.894;2023-01-10T03:20:02;99005.69;;;7.50;82.87
25947;BME280;13745;51.470;9.894;2023-01-10T03:22:51;99006.59;;;7.46;83.08
25947;BME280;13745;51.470;9.894;2023-01-10T03:25:40;99011.72;;;7.49;82.93
25947;BME280;13745;51.470;9.894;2023-01-10T03:28:29;99016.88;;;7.47;83.25
25947;BME280;13745;51.470;9.894;2023-01-10T03:31:23;99029.78;;;7.47;82.99
25947;BME280;13745;51.470;9.894;2023-01-10T03:34:09;99029.84;;;7.33;82.88
25947;BME280;13745;51.470;9.894;2023-01-10T03:36:59;99040.97;;;7.42;82.91
25947;BME280;13745;51.470;9.894;2023-01-10T03:39:53;99051.28;;;7.43;82.94
25947;BME280;13745;51.470;9.894;2023-01-10T03:42:54;99062.44;;;7.47;82.89
25947;BME280;13745;51.470;9.894;2023-01-10T03:46:03;99065.84;;;7.52;83.07
25947;BME280;13745;51.470;9.894;2023-01-10T03:48:49;99064.97;;;7.56;82.70
25947;BME280;13745;51.470;9.894;2023-01-10T03:51:36;99077.84;;;7.59;82.72
25947;BME280;13745;51.470;9.894;2023-01-10T03:54:22;99076.97;;;7.60;82.78
25947;BME280;13745;51.470;9.894;2023-01-10T03:57:14;99085.56;;;7.60;82.65
25947;BME280;13745;51.470;9.894;2023-01-10T04:00:00;99092.41;;;7.65;82.53
25947;BME280;13745;51.470;9.894;2023-01-10T04:02:48;99094.97;;;7.66;82.89
25947;BME280;13745;51.470;9.894;2023-01-10T04:05:33;99093.28;;;7.65;82.38
25947;BME280;13745;51.470;9.894;2023-01-10T04:08:18;99101.00;;;7.65;82.65
25947;BME280;13745;51.470;9.894;2023-01-10T04:11:03;99103.56;;;7.67;82.36
25947;BME280;13745;51.470;9.894;2023-01-10T04:13:50;99107.00;;;7.69;82.41
25947;BME280;13745;51.470;9.894;2023-01-10T04:16:35;99107.84;;;7.69;82.09
25947;BME280;13745;51.470;9.894;2023-01-10T04:19:20;99122.47;;;7.73;82.07
25947;BME280;13745;51.470;9.894;2023-01-10T04:22:05;99127.59;;;7.75;82.61
25947;BME280;13745;51.470;9.894;2023-01-10T04:24:50;99137.06;;;7.74;82.20
25947;BME280;13745;51.470;9.894;2023-01-10T04:27:36;99134.50;;;7.73;82.40
25947;BME280;13745;51.470;9.894;2023-01-10T04:30:23;99147.41;;;7.73;82.54
25947;BME280;13745;51.470;9.894;2023-01-10T04:33:08;99154.28;;;7.74;82.31
25947;BME280;13745;51.470;9.894;2023-01-10T04:35:54;99160.28;;;7.74;82.21
25947;BME280;13745;51.470;9.894;2023-01-10T04:38:39;99157.72;;;7.73;82.31
25947;BME280;13745;51.470;9.894;2023-01-10T04:41:24;99163.75;;;7.72;82.46
25947;BME280;13745;51.470;9.894;2023-01-10T04:44:09;99169.75;;;7.72;82.87
25947;BME280;13745;51.470;9.894;2023-01-10T04:46:56;99174.06;;;7.72;82.46
25947;BME280;13745;51.470;9.894;2023-01-10T04:49:41;99186.97;;;7.69;82.16
25947;BME280;13745;51.470;9.894;2023-01-10T04:52:26;99186.97;;;7.67;82.27
25947;BME280;13745;51.470;9.894;2023-01-10T04:55:11;99193.00;;;7.66;82.61
25947;BME280;13745;51.470;9.894;2023-01-10T04:57:56;99189.56;;;7.66;82.29
25947;BME280;13745;51.470;9.894;2023-01-10T05:00:41;99191.28;;;7.65;82.00
25947;BME280;13745;51.470;9.894;2023-01-10T05:03:28;99211.09;;;7.63;82.60
25947;BME280;13745;51.470;9.894;2023-01-10T05:06:13;99213.69;;;7.62;82.29
25947;BME280;13745;51.470;9.894;2023-01-10T05:08:59;99218.81;;;7.60;82.61
25947;BME280;13745;51.470;9.894;2023-01-10T05:11:44;99226.56;;;7.60;82.64
25947;BME280;13745;51.470;9.894;2023-01-10T05:14:29;99228.28;;;7.58;82.71
25947;BME280;13745;51.470;9.894;2023-01-10T05:17:13;99228.31;;;7.56;82.48
25947;BME280;13745;51.470;9.894;2023-01-10T05:20:00;99229.16;;;7.55;82.07
25947;BME280;13745;51.470;9.894;2023-01-10T05:22:45;99233.47;;;7.56;82.12
25947;BME280;13745;51.470;9.894;2023-01-10T05:25:31;99242.91;;;7.59;82.54
25947;BME280;13745;51.470;9.894;2023-01-10T05:28:16;99236.00;;;7.61;82.04
25947;BME280;13745;51.470;9.894;2023-01-10T05:31:04;99242.06;;;7.62;82.23
25947;BME280;13745;51.470;9.894;2023-01-10T05:33:50;99241.16;;;7.61;82.34
25947;BME280;13745;51.470;9.894;2023-01-10T05:36:36;99236.88;;;7.60;82.27
25947;BME280;13745;51.470;9.894;2023-01-10T05:39:22;99250.63;;;7.60;82.34
25947;BME280;13745;51.470;9.894;2023-01-10T05:42:07;99253.22;;;7.62;81.86
25947;BME280;13745;51.470;9.894;2023-01-10T05:44:52;99259.22;;;7.63;81.94
25947;BME280;13745;51.470;9.894;2023-01-10T05:47:37;99255.81;;;7.57;82.01
25947;BME280;13745;51.470;9.894;2023-01-10T05:50:22;99256.66;;;7.56;82.21
25947;BME280;13745;51.470;9.894;2023-01-10T05:53:09;99260.13;;;7.55;81.92
25947;BME280;13745;51.470;9.894;2023-01-10T05:55:56;99270.44;;;7.54;82.05
25947;BME280;13745;51.470;9.894;2023-01-10T05:58:41;99264.41;;;7.50;81.82
25947;BME280;13745;51.470;9.894;2023-01-10T06:01:26;99281.63;;;7.50;82.10
25947;BME280;13745;51.470;9.894;2023-01-10T06:04:11;99289.34;;;7.50;82.22
25947;BME280;13745;51.470;9.894;2023-01-10T06:06:56;99299.69;;;7.47;82.15
25947;BME280;13745;51.470;9.894;2023-01-10T06:09:42;99309.97;;;7.44;81.66
25947;BME280;13745;51.470;9.894;2023-01-10T06:12:27;99308.28;;;7.41;81.73
25947;BME280;13745;51.470;9.894;2023-01-10T06:15:13;99333.19;;;7.42;81.93
25947;BME280;13745;51.470;9.894;2023-01-10T06:17:58;99329.75;;;7.43;81.63
25947;BME280;13745;51.470;9.894;2023-01-10T06:20:43;99335.78;;;7.45;81.79
25947;BME280;13745;51.470;9.894;2023-01-10T06:23:28;99337.50;;;7.45;81.74
25947;BME280;13745;51.470;9.894;2023-01-10T06:26:15;99343.53;;;7.45;81.22
25947;BME280;13745;51.470;9.894;2023-01-10T06:29:01;99345.25;;;7.45;81.14
25947;BME280;13745;51.470;9.894;2023-01-10T06:31:47;99350.41;;;7.45;81.45
25947;BME280;13745;51.470;9.894;2023-01-10T06:34:31;99354.69;;;7.46;80.80
25947;BME280;13745;51.470;9.894;2023-01-10T06:37:16;99358.13;;;7.46;81.18
25947;BME280;13745;51.470;9.894;2023-01-10T06:40:02;99364.13;;;7.44;80.92
25947;BME280;13745;51.470;9.894;2023-01-10T06:42:49;99353.81;;;7.42;80.81
25947;BME280;13745;51.470;9.894;2023-01-10T06:45:34;99353.81;;;7.42;81.07
25947;BME280;13745;51.470;9.894;2023-01-10T06:48:19;99363.28;;;7.40;80.50
25947;BME280;13745;51.470;9.894;2023-01-10T06:51:05;99361.56;;;7.33;80.62
25947;BME280;13745;51.470;9.894;2023-01-10T06:53:49;99366.75;;;7.30;80.72
25947;BME280;13745;51.470;9.894;2023-01-10T06:56:34;99374.47;;;7.25;80.98
25947;BME280;13745;51.470;9.894;2023-01-10T06:59:21;99383.94;;;7.22;81.05
25947;BME280;13745;51.470;9.894;2023-01-10T07:02:08;99391.66;;;7.17;80.39
25947;BME280;13745;51.470;9.894;2023-01-10T07:04:54;99398.50;;;7.20;80.67
25947;BME280;13745;51.470;9.894;2023-01-10T07:07:39;99401.13;;;7.23;80.32
25947;BME280;13745;51.470;9.894;2023-01-10T07:10:24;99407.97;;;7.24;80.58
25947;BME280;13745;51.470;9.894;2023-01-10T07:13:09;99414.84;;;7.26;80.66
25947;BME280;13745;51.470;9.894;2023-01-10T07:16:01;99409.69;;;7.25;80.14
25947;BME280;13745;51.470;9.894;2023-01-10T07:18:46;99410.56;;;7.25;80.65
25947;BME280;13745;51.470;9.894;2023-01-10T07:21:31;99420.88;;;7.25;80.49
25947;BME280;13745;51.470;9.894;2023-01-10T07:24:16;99427.75;;;7.26;80.30
25947;BME280;13745;51.470;9.894;2023-01-10T07:27:02;99422.59;;;7.26;80.13
25947;BME280;13745;51.470;9.894;2023-01-10T07:29:47;99427.75;;;7.22;80.45
25947;BME280;13745;51.470;9.894;2023-01-10T07:32:34;99426.03;;;7.21;79.85
25947;BME280;13745;51.470;9.894;2023-01-10T07:35:19;99439.78;;;7.23;80.24
25947;BME280;13745;51.470;9.894;2023-01-10T07:38:04;99447.50;;;7.17;80.56
25947;BME280;13745;51.470;9.894;2023-01-10T07:40:49;99446.63;;;7.16;80.29
25947;BME280;13745;51.470;9.894;2023-01-10T07:43:34;99449.22;;;7.15;80.12
25947;BME280;13745;51.470;9.894;2023-01-10T07:46:19;99450.06;;;7.17;80.36
25947;BME280;13745;51.470;9.894;2023-01-10T07:49:06;99457.81;;;7.17;80.04
25947;BME280;13745;51.470;9.894;2023-01-10T07:51:51;99460.38;;;7.18;79.81
25947;BME280;13745;51.470;9.894;2023-01-10T07:54:36;99456.94;;;7.19;79.56
25947;BME280;13745;51.470;9.894;2023-01-10T07:57:21;99460.38;;;7.20;80.02
25947;BME280;13745;51.470;9.894;2023-01-10T08:00:07;99451.78;;;7.18;79.60
25947;BME280;13745;51.470;9.894;2023-01-10T08:02:53;99453.53;;;7.20;80.03
25947;BME280;13745;51.470;9.894;2023-01-10T08:05:39;99452.69;;;7.21;79.73
25947;BME280;13745;51.470;9.894;2023-01-10T08:08:25;99450.94;;;7.23;80.07
25947;BME280;13745;51.470;9.894;2023-01-10T08:11:11;99456.97;;;7.25;79.97
25947;BME280;13745;51.470;9.894;2023-01-10T08:13:56;99458.66;;;7.26;79.38
25947;BME280;13745;51.470;9.894;2023-01-10T08:16:41;99463.84;;;7.29;79.44
25947;BME280;13745;51.470;9.894;2023-01-10T08:19:26;99479.31;;;7.29;79.57
25947;BME280;13745;51.470;9.894;2023-01-10T08:22:12;99482.75;;;7.25;79.08
25947;BME280;13745;51.470;9.894;2023-01-10T08:24:58;99490.47;;;7.25;79.68
25947;BME280;13745;51.470;9.894;2023-01-10T08:27:43;99497.38;;;7.32;79.68
25947;BME280;13745;51.470;9.894;2023-01-10T08:30:28;99511.09;;;7.35;79.59
25947;BME280;13745;51.470;9.894;2023-01-10T08:33:13;99513.69;;;7.35;79.67
25947;BME280;13745;51.470;9.894;2023-01-10T08:35:58;99519.72;;;7.38;79.66
25947;BME280;13745;51.470;9.894;2023-01-10T08:38:44;99508.56;;;7.39;79.21
25947;BME280;13745;51.470;9.894;2023-01-10T08:41:30;99509.41;;;7.43;79.82
25947;BME280;13745;51.470;9.894;2023-01-10T08:44:15;99511.16;;;7.47;79.59
25947;BME280;13745;51.470;9.894;2023-01-10T08:47:00;99520.59;;;7.48;79.70
25947;BME280;13745;51.470;9.894;2023-01-10T08:49:45;99529.19;;;7.50;79.78
25947;BME280;13745;51.470;9.894;2023-01-10T08:52:32;99526.59;;;7.51;79.87
25947;BME280;13745;51.470;9.894;2023-01-10T08:55:19;99499.97;;;7.49;79.65
25947;BME280;13745;51.470;9.894;2023-01-10T08:58:04;99475.03;;;7.51;79.65
25947;BME280;13745;51.470;9.894;2023-01-10T09:00:49;99501.69;;;7.50;79.26
25947;BME280;13745;51.470;9.894;2023-01-10T09:03:35;99518.03;;;7.54;79.67
25947;BME280;13745;51.470;9.894;2023-01-10T09:06:20;99510.28;;;7.52;79.04
25947;BME280;13745;51.470;9.894;2023-01-10T09:09:05;99518.88;;;7.48;79.54
25947;BME280;13745;51.470;9.894;2023-01-10T09:11:51;99516.28;;;7.50;78.89
25947;BME280;13745;51.470;9.894;2023-01-10T09:14:36;99522.31;;;7.55;79.38
25947;BME280;13745;51.470;9.894;2023-01-10T09:17:21;99528.34;;;7.68;78.99
25947;BME280;13745;51.470;9.894;2023-01-10T09:20:08;99524.91;;;7.75;78.96
25947;BME280;13745;51.470;9.894;2023-01-10T09:22:53;99536.09;;;7.80;78.53
25947;BME280;13745;51.470;9.894;2023-01-10T09:25:39;99538.66;;;7.92;78.94
25947;BME280;13745;51.470;9.894;2023-01-10T09:28:25;99540.38;;;8.02;78.71
25947;BME280;13745;51.470;9.894;2023-01-10T09:31:11;99541.22;;;8.10;78.46
25947;BME280;13745;51.470;9.894;2023-01-10T09:33:56;99535.22;;;8.17;78.17
25947;BME280;13745;51.470;9.894;2023-01-10T09:36:41;99555.00;;;8.22;78.00
25947;BME280;13745;51.470;9.894;2023-01-10T09:39:26;99558.44;;;8.27;78.59
25947;BME280;13745;51.470;9.894;2023-01-10T09:42:21;99559.28;;;8.33;78.35
25947;BME280;13745;51.470;9.894;2023-01-10T09:45:15;99561.03;;;8.39;77.99
25947;BME280;13745;51.470;9.894;2023-01-10T09:48:04;99559.28;;;8.33;78.24
25947;BME280;13745;51.470;9.894;2023-01-10T09:51:00;99570.50;;;8.35;78.05
25947;BME280;13745;51.470;9.894;2023-01-10T09:53:49;99559.31;;;8.35;78.31
25947;BME280;13745;51.470;9.894;2023-01-10T09:56:36;99562.75;;;8.46;78.29
25947;BME280;13745;51.470;9.894;2023-01-10T09:59:23;99569.63;;;8.53;78.00
25947;BME280;13745;51.470;9.894;2023-01-10T10:02:21;99559.25;;;8.59;77.83
25947;BME280;13745;51.470;9.894;2023-01-10T10:05:11;99562.72;;;8.60;77.55
25947;BME280;13745;51.470;9.894;2023-01-10T10:08:00;99569.63;;;8.55;77.74
25947;BME280;13745;51.470;9.894;2023-01-10T10:10:53;99580.81;;;8.61;77.69
25947;BME280;13745;51.470;9.894;2023-01-10T10:13:46;99576.47;;;8.74;78.09
25947;BME280;13745;51.470;9.894;2023-01-10T10:16:48;99578.13;;;8.90;77.86
25947;BME280;13745;51.470;9.894;2023-01-10T10:19:49;99586.59;;;9.29;77.00
25947;BME280;13745;51.470;9.894;2023-01-10T10:22:46;99586.63;;;9.21;77.25
25947;BME280;13745;51.470;9.894;2023-01-10T10:25:45;99590.09;;;9.20;77.28
25947;BME280;13745;51.470;9.894;2023-01-10T10:28:49;99577.19;;;9.10;77.19
25947;BME280;13745;51.470;9.894;2023-01-10T10:31:47;99580.53;;;9.32;77.00
25947;BME280;13745;51.470;9.894;2023-01-10T10:34:36;99574.09;;;9.97;75.88
25947;BME280;13745;51.470;9.894;2023-01-10T10:37:27;99562.41;;;11.23;74.12
25947;BME280;13745;51.470;9.894;2023-01-10T10:40:17;99554.66;;;13.26;70.92
25947;BME280;13745;51.470;9.894;2023-01-10T10:43:12;99558.47;;;13.87;68.94
25947;BME280;13745;51.470;9.894;2023-01-10T10:46:01;99559.88;;;13.26;69.25
25947;BME280;13745;51.470;9.894;2023-01-10T10:48:55;99563.75;;;12.60;70.16
25947;BME280;13745;51.470;9.894;2023-01-10T10:51:46;99571.59;;;12.07;70.93
25947;BME280;13745;51.470;9.894;2023-01-10T10:54:34;99557.06;;;13.35;69.19
25947;BME280;13745;51.470;9.894;2023-01-10T10:57:23;99557.19;;;15.33;65.54
25947;BME280;13745;51.470;9.894;2023-01-10T11:00:15;99551.47;;;16.31;63.50
25947;BME280;13745;51.470;9.894;2023-01-10T11:03:03;99555.03;;;17.94;60.67
25947;BME280;13745;51.470;9.894;2023-01-10T11:05:51;99561.41;;;18.31;59.39
25947;BME280;13745;51.470;9.894;2023-01-10T11:08:38;99552.28;;;19.93;56.78
25947;BME280;13745;51.470;9.894;2023-01-10T11:11:28;99556.31;;;19.83;56.19
25947;BME280;13745;51.470;9.894;2023-01-10T11:14:14;99558.75;;;20.05;55.78
25947;BME280;13745;51.470;9.894;2023-01-10T11:17:17;99562.75;;;21.95;53.62
25947;BME280;13745;51.470;9.894;2023-01-10T11:20:06;99548.13;;;22.93;51.01
25947;BME280;13745;51.470;9.894;2023-01-10T11:22:51;99566.59;;;23.36;49.85
25947;BME280;13745;51.470;9.894;2023-01-10T11:25:44;99557.56;;;24.21;48.89
25947;BME280;13745;51.470;9.894;2023-01-10T11:28:33;99555.34;;;25.18;46.90
25947;BME280;13745;51.470;9.894;2023-01-10T11:31:25;99550.66;;;26.30;45.84
25947;BME280;13745;51.470;9.894;2023-01-10T11:34:19;99541.25;;;26.73;44.93
25947;BME280;13745;51.470;9.894;2023-01-10T11:37:17;99559.16;;;24.63;47.18
25947;BME280;13745;51.470;9.894;2023-01-10T11:40:20;99554.75;;;23.56;47.67
25947;BME280;13745;51.470;9.894;2023-01-10T11:43:25;99558.91;;;21.84;49.76
25947;BME280;13745;51.470;9.894;2023-01-10T11:46:14;99546.66;;;23.16;46.96
25947;BME280;13745;51.470;9.894;2023-01-10T11:49:02;99543.41;;;23.68;45.61
25947;BME280;13745;51.470;9.894;2023-01-10T11:51:50;99551.94;;;22.29;46.73
25947;BME280;13745;51.470;9.894;2023-01-10T11:54:39;99551.03;;;20.36;49.06
25947;BME280;13745;51.470;9.894;2023-01-10T11:57:26;99557.88;;;19.30;50.20
25947;BME280;13745;51.470;9.894;2023-01-10T12:03:02;99571.44;;;17.54;52.46
25947;BME280;13745;51.470;9.894;2023-01-10T12:06:00;99558.84;;;17.18;52.80
25947;BME280;13745;51.470;9.894;2023-01-10T12:08:46;99576.84;;;16.80;53.42
25947;BME280;13745;51.470;9.894;2023-01-10T12:11:32;99568.34;;;16.74;53.46
25947;BME280;13745;51.470;9.894;2023-01-10T12:14:19;99564.19;;;16.42;53.72
25947;BME280;13745;51.470;9.894;2023-01-10T12:17:04;99573.75;;;16.43;54.29
25947;BME280;13745;51.470;9.894;2023-01-10T12:19:51;99565.06;;;15.89;54.73
25947;BME280;13745;51.470;9.894;2023-01-10T12:22:38;99569.31;;;15.92;55.29
25947;BME280;13745;51.470;9.894;2023-01-10T12:25:29;99558.44;;;16.06;55.11
25947;BME280;13745;51.470;9.894;2023-01-10T12:28:20;99553.28;;;15.76;55.79
25947;BME280;13745;51.470;9.894;2023-01-10T12:31:12;99557.22;;;16.16;54.78
25947;BME280;13745;51.470;9.894;2023-01-10T12:34:01;99571.41;;;16.09;54.77
25947;BME280;13745;51.470;9.894;2023-01-10T12:36:57;99562.09;;;15.14;55.61
25947;BME280;13745;51.470;9.894;2023-01-10T12:39:48;99574.63;;;14.37;56.86
25947;BME280;13745;51.470;9.894;2023-01-10T12:42:43;99576.84;;;13.81;57.81
25947;BME280;13745;51.470;9.894;2023-01-10T12:45:50;99576.59;;;13.54;58.76
25947;BME280;13745;51.470;9.894;2023-01-10T12:48:42;99573.81;;;13.21;59.12
25947;BME280;13745;51.470;9.894;2023-01-10T12:51:30;99578.78;;;13.34;59.14
25947;BME280;13745;51.470;9.894;2023-01-10T12:54:19;99574.44;;;13.34;59.27
25947;BME280;13745;51.470;9.894;2023-01-10T12:57:15;99573.47;;;12.95;59.52
25947;BME280;13745;51.470;9.894;2023-01-10T13:00:05;99580.88;;;12.72;60.34
25947;BME280;13745;51.470;9.894;2023-01-10T13:02:54;99585.63;;;12.50;60.57
25947;BME280;13745;51.470;9.894;2023-01-10T13:05:39;99595.63;;;12.22;61.04
25947;BME280;13745;51.470;9.894;2023-01-10T13:08:26;99599.56;;;11.90;61.65
25947;BME280;13745;51.470;9.894;2023-01-10T13:11:14;99593.84;;;11.67;61.93
25947;BME280;13745;51.470;9.894;2023-01-10T13:14:03;99600.75;;;11.68;62.47
25947;BME280;13745;51.470;9.894;2023-01-10T13:16:54;99587.22;;;11.46;62.90
25947;BME280;13745;51.470;9.894;2023-01-10T13:19:40;99590.97;;;11.22;63.40
25947;BME280;13745;51.470;9.894;2023-01-10T13:22:25;99593.06;;;10.94;64.01
25947;BME280;13745;51.470;9.894;2023-01-10T13:25:18;99602.13;;;10.50;64.70
25947;BME280;13745;51.470;9.894;2023-01-10T13:28:07;99597.19;;;10.26;65.19
25947;BME280;13745;51.470;9.894;2023-01-10T13:30:59;99607.63;;;10.12;65.52
25947;BME280;13745;51.470;9.894;2023-01-10T13:33:50;99606.84;;;10.01;65.68
25947;BME280;13745;51.470;9.894;2023-01-10T13:36:39;99599.19;;;9.89;65.86
25947;BME280;13745;51.470;9.894;2023-01-10T13:39:30;99592.34;;;9.78;66.30
25947;BME280;13745;51.470;9.894;2023-01-10T13:42:29;99601.06;;;9.65;66.17
25947;BME280;13745;51.470;9.894;2023-01-10T13:45:34;99599.34;;;9.64;66.48
25947;BME280;13745;51.470;9.894;2023-01-10T13:48:26;99596.78;;;9.56;66.21
25947;BME280;13745;51.470;9.894;2023-01-10T13:51:15;99606.34;;;9.47;66.60
25947;BME280;13745;51.470;9.894;2023-01-10T13:54:02;99595.19;;;9.37;66.87
25947;BME280;13745;51.470;9.894;2023-01-10T13:56:48;99606.38;;;9.35;67.01
25947;BME280;13745;51.470;9.894;2023-01-10T13:59:59;99609.94;;;9.15;67.17
25947;BME280;13745;51.470;9.894;2023-01-10T14:03:03;99615.97;;;9.13;67.71
25947;BME280;13745;51.470;9.894;2023-01-10T14:05:48;99610.81;;;9.08;67.60
25947;BME280;13745;51.470;9.894;2023-01-10T14:08:33;99602.22;;;9.03;67.95
25947;BME280;13745;51.470;9.894;2023-01-10T14:11:19;99613.44;;;9.02;67.66
25947;BME280;13745;51.470;9.894;2023-01-10T14:14:18;99603.13;;;8.91;68.04
25947;BME280;13745;51.470;9.894;2023-01-10T14:17:12;99614.34;;;8.89;68.05
25947;BME280;13745;51.470;9.894;2023-01-10T14:20:06;99615.22;;;8.80;68.19
25947;BME280;13745;51.470;9.894;2023-01-10T14:23:15;99607.47;;;8.74;68.10
25947;BME280;13745;51.470;9.894;2023-01-10T14:26:02;99603.16;;;8.78;68.40
25947;BME280;13745;51.470;9.894;2023-01-10T14:28:48;99603.16;;;8.78;68.36
25947;BME280;13745;51.470;9.894;2023-01-10T14:31:35;99601.44;;;8.75;68.36
25947;BME280;13745;51.470;9.894;2023-01-10T14:34:22;99597.16;;;8.77;68.47
25947;BME280;13745;51.470;9.894;2023-01-10T14:37:15;99593.69;;;8.72;68.49
25947;BME280;13745;51.470;9.894;2023-01-10T14:40:16;99576.47;;;8.66;68.10
25947;BME280;13745;51.470;9.894;2023-01-10T14:43:05;99569.59;;;8.64;68.70
25947;BME280;13745;51.470;9.894;2023-01-10T14:45:57;99566.16;;;8.62;68.24
25947;BME280;13745;51.470;9.894;2023-01-10T14:48:46;99566.16;;;8.62;68.65
25947;BME280;13745;51.470;9.894;2023-01-10T14:51:32;99564.44;;;8.62;68.53
25947;BME280;13745;51.470;9.894;2023-01-10T14:54:19;99558.41;;;8.60;68.66
25947;BME280;13745;51.470;9.894;2023-01-10T14:57:16;99548.09;;;8.51;68.89
25947;BME280;13745;51.470;9.894;2023-01-10T15:00:05;99548.09;;;8.51;69.02
25947;BME280;13745;51.470;9.894;2023-01-10T15:02:50;99544.66;;;8.49;68.81
25947;BME280;13745;51.470;9.894;2023-01-10T15:05:43;99552.44;;;8.44;68.96
25947;BME280;13745;51.470;9.894;2023-01-10T15:08:29;99560.16;;;8.43;69.01
25947;BME280;13745;51.470;9.894;2023-01-10T15:11:16;99551.56;;;8.42;69.01